Okinawa, Japan
Current Conditions -  °F | °C
As of 9:00 PM on Wednesday 28 Jan 2015 (Local Time) from ROAH Reporting Station
Broken Clouds Broken Clouds  
Wind Chill: 63°   Ceiling: 11000
Heat Index: 63°   Visibility: 6mi
Dew Point: 48°   Wind: 12mph
Humidity: 59%   Direction: 40°NE
Pressure: 30.12"   Gusts: NA
Location:  26.23°N, 127.68°E
Report Text: ROAH 281200Z 04010KT 9999 FEW035 SCT045 BKN110 17/09 Q1020
Loading
Personal Weather Stations






























Interactive Weather Map New forecast layout! Learn more

10-Day Weather Forecast

Advertisements
Track Severe Weather on mobile